METAR Data
IDs: Format: Raw Decoded Include TAF

Data at: 0029 UTC 26 Oct 2021

SAVC 260000Z 28018KT 9999 -RA BKN050 15/02 Q1002